sensor_id;sensor_type;location;lat;lon;timestamp;P1;durP1;ratioP1;P2;durP2;ratioP2
31676;SDS011;18385;51.572;6.578;2022-10-19T00:01:26;4.50;;;1.80;;
31676;SDS011;18385;51.572;6.578;2022-10-19T00:03:53;4.20;;;1.50;;
31676;SDS011;18385;51.572;6.578;2022-10-19T00:06:20;2.90;;;1.45;;
31676;SDS011;18385;51.572;6.578;2022-10-19T00:08:50;4.30;;;1.70;;
31676;SDS011;18385;51.572;6.578;2022-10-19T00:11:20;3.75;;;1.50;;
31676;SDS011;18385;51.572;6.578;2022-10-19T00:13:46;7.65;;;1.85;;
31676;SDS011;18385;51.572;6.578;2022-10-19T00:16:12;12.65;;;1.77;;
31676;SDS011;18385;51.572;6.578;2022-10-19T00:18:40;7.28;;;2.40;;
31676;SDS011;18385;51.572;6.578;2022-10-19T00:21:10;4.88;;;1.60;;
31676;SDS011;18385;51.572;6.578;2022-10-19T00:23:37;5.50;;;1.67;;
31676;SDS011;18385;51.572;6.578;2022-10-19T00:26:03;3.72;;;1.95;;
31676;SDS011;18385;51.572;6.578;2022-10-19T00:28:29;9.32;;;1.77;;
31676;SDS011;18385;51.572;6.578;2022-10-19T00:30:55;3.70;;;1.98;;
31676;SDS011;18385;51.572;6.578;2022-10-19T00:33:21;4.55;;;1.33;;
31676;SDS011;18385;51.572;6.578;2022-10-19T00:35:48;5.53;;;1.70;;
31676;SDS011;18385;51.572;6.578;2022-10-19T00:38:17;4.20;;;2.00;;
31676;SDS011;18385;51.572;6.578;2022-10-19T00:43:13;6.35;;;2.15;;
31676;SDS011;18385;51.572;6.578;2022-10-19T00:45:43;7.65;;;1.70;;
31676;SDS011;18385;51.572;6.578;2022-10-19T00:48:10;4.07;;;1.60;;
31676;SDS011;18385;51.572;6.578;2022-10-19T00:50:39;5.32;;;2.63;;
31676;SDS011;18385;51.572;6.578;2022-10-19T00:53:06;5.57;;;1.92;;
31676;SDS011;18385;51.572;6.578;2022-10-19T00:55:32;10.70;;;2.03;;
31676;SDS011;18385;51.572;6.578;2022-10-19T00:57:58;5.57;;;2.10;;
31676;SDS011;18385;51.572;6.578;2022-10-19T01:00:26;3.95;;;1.85;;
31676;SDS011;18385;51.572;6.578;2022-10-19T01:02:52;5.75;;;1.70;;
31676;SDS011;18385;51.572;6.578;2022-10-19T01:05:17;5.05;;;1.80;;
31676;SDS011;18385;51.572;6.578;2022-10-19T01:07:43;4.15;;;1.95;;
31676;SDS011;18385;51.572;6.578;2022-10-19T01:10:09;4.22;;;2.03;;
31676;SDS011;18385;51.572;6.578;2022-10-19T01:23:33;11.27;;;3.30;;
31676;SDS011;18385;51.572;6.578;2022-10-19T01:26:32;7.28;;;3.05;;
31676;SDS011;18385;51.572;6.578;2022-10-19T01:31:58;12.30;;;2.97;;
31676;SDS011;18385;51.572;6.578;2022-10-19T01:40:19;8.50;;;2.58;;
31676;SDS011;18385;51.572;6.578;2022-10-19T01:43:15;11.37;;;2.20;;
31676;SDS011;18385;51.572;6.578;2022-10-19T01:48:40;3.72;;;2.10;;
31676;SDS011;18385;51.572;6.578;2022-10-19T01:51:16;5.30;;;2.90;;
31676;SDS011;18385;51.572;6.578;2022-10-19T01:53:48;4.80;;;2.63;;
31676;SDS011;18385;51.572;6.578;2022-10-19T01:56:17;10.40;;;2.75;;
31676;SDS011;18385;51.572;6.578;2022-10-19T01:58:47;5.45;;;2.42;;
31676;SDS011;18385;51.572;6.578;2022-10-19T02:01:15;6.55;;;2.55;;
31676;SDS011;18385;51.572;6.578;2022-10-19T02:03:47;11.32;;;3.10;;
31676;SDS011;18385;51.572;6.578;2022-10-19T02:06:13;12.52;;;2.88;;
31676;SDS011;18385;51.572;6.578;2022-10-19T02:08:41;7.15;;;2.58;;
31676;SDS011;18385;51.572;6.578;2022-10-19T02:11:10;8.75;;;2.78;;
31676;SDS011;18385;51.572;6.578;2022-10-19T02:13:36;7.68;;;2.92;;
31676;SDS011;18385;51.572;6.578;2022-10-19T02:16:04;7.63;;;2.75;;
31676;SDS011;18385;51.572;6.578;2022-10-19T02:18:35;8.00;;;3.00;;
31676;SDS011;18385;51.572;6.578;2022-10-19T02:21:05;5.50;;;3.33;;
31676;SDS011;18385;51.572;6.578;2022-10-19T02:23:31;6.00;;;2.38;;
31676;SDS011;18385;51.572;6.578;2022-10-19T02:25:58;9.10;;;2.70;;
31676;SDS011;18385;51.572;6.578;2022-10-19T02:28:25;6.97;;;2.53;;
31676;SDS011;18385;51.572;6.578;2022-10-19T02:30:52;8.75;;;2.75;;
31676;SDS011;18385;51.572;6.578;2022-10-19T02:33:18;9.70;;;3.03;;
31676;SDS011;18385;51.572;6.578;2022-10-19T02:35:44;5.13;;;2.13;;
31676;SDS011;18385;51.572;6.578;2022-10-19T02:38:10;10.48;;;2.58;;
31676;SDS011;18385;51.572;6.578;2022-10-19T02:40:40;3.67;;;2.10;;
31676;SDS011;18385;51.572;6.578;2022-10-19T02:43:11;12.13;;;3.03;;
31676;SDS011;18385;51.572;6.578;2022-10-19T02:45:42;11.63;;;2.90;;
31676;SDS011;18385;51.572;6.578;2022-10-19T02:48:19;16.35;;;2.60;;
31676;SDS011;18385;51.572;6.578;2022-10-19T02:50:47;4.05;;;2.78;;
31676;SDS011;18385;51.572;6.578;2022-10-19T02:53:13;23.60;;;3.25;;
31676;SDS011;18385;51.572;6.578;2022-10-19T02:55:40;15.52;;;2.83;;
31676;SDS011;18385;51.572;6.578;2022-10-19T02:58:06;8.63;;;2.60;;
31676;SDS011;18385;51.572;6.578;2022-10-19T03:00:32;5.47;;;2.88;;
31676;SDS011;18385;51.572;6.578;2022-10-19T03:02:58;6.45;;;2.40;;
31676;SDS011;18385;51.572;6.578;2022-10-19T03:05:23;6.63;;;2.85;;
31676;SDS011;18385;51.572;6.578;2022-10-19T03:07:49;11.75;;;2.60;;
31676;SDS011;18385;51.572;6.578;2022-10-19T03:10:15;14.93;;;3.45;;
31676;SDS011;18385;51.572;6.578;2022-10-19T03:12:40;33.53;;;6.13;;
31676;SDS011;18385;51.572;6.578;2022-10-19T03:15:06;15.70;;;2.97;;
31676;SDS011;18385;51.572;6.578;2022-10-19T03:17:32;10.50;;;2.83;;
31676;SDS011;18385;51.572;6.578;2022-10-19T03:19:58;12.85;;;3.03;;
31676;SDS011;18385;51.572;6.578;2022-10-19T03:22:23;8.60;;;3.10;;
31676;SDS011;18385;51.572;6.578;2022-10-19T03:24:49;11.50;;;3.20;;
31676;SDS011;18385;51.572;6.578;2022-10-19T03:27:15;12.98;;;3.22;;
31676;SDS011;18385;51.572;6.578;2022-10-19T03:29:40;7.70;;;2.80;;
31676;SDS011;18385;51.572;6.578;2022-10-19T03:32:06;9.45;;;4.82;;
31676;SDS011;18385;51.572;6.578;2022-10-19T03:34:32;7.43;;;2.83;;
31676;SDS011;18385;51.572;6.578;2022-10-19T03:36:57;6.63;;;2.78;;
31676;SDS011;18385;51.572;6.578;2022-10-19T03:39:23;10.88;;;2.95;;
31676;SDS011;18385;51.572;6.578;2022-10-19T03:41:49;10.13;;;3.13;;
31676;SDS011;18385;51.572;6.578;2022-10-19T03:44:15;10.50;;;2.65;;
31676;SDS011;18385;51.572;6.578;2022-10-19T03:46:40;8.35;;;2.90;;
31676;SDS011;18385;51.572;6.578;2022-10-19T03:49:06;4.97;;;2.60;;
31676;SDS011;18385;51.572;6.578;2022-10-19T03:51:33;7.38;;;2.97;;
31676;SDS011;18385;51.572;6.578;2022-10-19T03:54:01;7.45;;;3.33;;
31676;SDS011;18385;51.572;6.578;2022-10-19T03:56:31;7.22;;;2.70;;
31676;SDS011;18385;51.572;6.578;2022-10-19T03:58:58;5.78;;;2.72;;
31676;SDS011;18385;51.572;6.578;2022-10-19T04:03:59;6.50;;;2.58;;
31676;SDS011;18385;51.572;6.578;2022-10-19T04:06:29;4.72;;;2.50;;
31676;SDS011;18385;51.572;6.578;2022-10-19T04:08:57;7.13;;;2.53;;
31676;SDS011;18385;51.572;6.578;2022-10-19T04:11:24;13.90;;;3.22;;
31676;SDS011;18385;51.572;6.578;2022-10-19T04:13:52;6.25;;;2.72;;
31676;SDS011;18385;51.572;6.578;2022-10-19T04:16:19;7.15;;;2.70;;
31676;SDS011;18385;51.572;6.578;2022-10-19T04:18:46;8.85;;;3.53;;
31676;SDS011;18385;51.572;6.578;2022-10-19T04:21:19;7.93;;;3.25;;
31676;SDS011;18385;51.572;6.578;2022-10-19T04:24:05;11.23;;;2.75;;
31676;SDS011;18385;51.572;6.578;2022-10-19T04:26:33;5.75;;;2.55;;
31676;SDS011;18385;51.572;6.578;2022-10-19T04:29:11;6.65;;;2.70;;
31676;SDS011;18385;51.572;6.578;2022-10-19T04:31:38;14.27;;;2.83;;
31676;SDS011;18385;51.572;6.578;2022-10-19T04:34:04;6.53;;;2.78;;
31676;SDS011;18385;51.572;6.578;2022-10-19T04:36:31;10.02;;;2.20;;
31676;SDS011;18385;51.572;6.578;2022-10-19T04:38:57;6.70;;;3.17;;
31676;SDS011;18385;51.572;6.578;2022-10-19T04:41:22;3.92;;;2.15;;
31676;SDS011;18385;51.572;6.578;2022-10-19T04:43:53;6.70;;;2.25;;
31676;SDS011;18385;51.572;6.578;2022-10-19T04:46:19;8.02;;;2.60;;
31676;SDS011;18385;51.572;6.578;2022-10-19T04:48:45;7.95;;;2.90;;
31676;SDS011;18385;51.572;6.578;2022-10-19T04:51:16;6.78;;;2.53;;
31676;SDS011;18385;51.572;6.578;2022-10-19T04:53:46;7.32;;;3.00;;
31676;SDS011;18385;51.572;6.578;2022-10-19T04:56:48;8.15;;;2.63;;
31676;SDS011;18385;51.572;6.578;2022-10-19T04:59:58;4.95;;;2.47;;
31676;SDS011;18385;51.572;6.578;2022-10-19T05:02:31;6.55;;;2.22;;
31676;SDS011;18385;51.572;6.578;2022-10-19T05:08:01;7.07;;;2.42;;
31676;SDS011;18385;51.572;6.578;2022-10-19T05:10:27;7.53;;;2.97;;
31676;SDS011;18385;51.572;6.578;2022-10-19T05:12:52;8.63;;;2.85;;
31676;SDS011;18385;51.572;6.578;2022-10-19T05:15:29;7.30;;;2.90;;
31676;SDS011;18385;51.572;6.578;2022-10-19T05:17:54;11.30;;;2.97;;
31676;SDS011;18385;51.572;6.578;2022-10-19T05:20:23;8.93;;;3.35;;
31676;SDS011;18385;51.572;6.578;2022-10-19T05:25:46;13.35;;;2.92;;
31676;SDS011;18385;51.572;6.578;2022-10-19T05:28:12;6.20;;;2.90;;
31676;SDS011;18385;51.572;6.578;2022-10-19T05:30:49;12.63;;;2.40;;
31676;SDS011;18385;51.572;6.578;2022-10-19T05:33:15;7.65;;;3.05;;
31676;SDS011;18385;51.572;6.578;2022-10-19T05:35:40;8.45;;;2.67;;
31676;SDS011;18385;51.572;6.578;2022-10-19T05:38:06;4.47;;;1.95;;
31676;SDS011;18385;51.572;6.578;2022-10-19T05:40:31;5.10;;;2.22;;
31676;SDS011;18385;51.572;6.578;2022-10-19T05:42:57;15.80;;;7.10;;
31676;SDS011;18385;51.572;6.578;2022-10-19T05:45:23;11.25;;;3.28;;
31676;SDS011;18385;51.572;6.578;2022-10-19T05:47:48;9.45;;;3.13;;
31676;SDS011;18385;51.572;6.578;2022-10-19T05:50:14;8.50;;;3.28;;
31676;SDS011;18385;51.572;6.578;2022-10-19T05:52:39;7.03;;;2.55;;
31676;SDS011;18385;51.572;6.578;2022-10-19T05:55:05;4.70;;;2.60;;
31676;SDS011;18385;51.572;6.578;2022-10-19T05:57:34;5.53;;;2.88;;
31676;SDS011;18385;51.572;6.578;2022-10-19T06:00:00;7.63;;;2.85;;
31676;SDS011;18385;51.572;6.578;2022-10-19T06:02:26;4.38;;;2.63;;
31676;SDS011;18385;51.572;6.578;2022-10-19T06:04:51;6.07;;;3.13;;
31676;SDS011;18385;51.572;6.578;2022-10-19T06:07:17;6.85;;;2.92;;
31676;SDS011;18385;51.572;6.578;2022-10-19T06:09:42;4.30;;;2.38;;
31676;SDS011;18385;51.572;6.578;2022-10-19T06:12:09;9.63;;;3.08;;
31676;SDS011;18385;51.572;6.578;2022-10-19T06:14:35;6.45;;;2.35;;
31676;SDS011;18385;51.572;6.578;2022-10-19T06:17:01;6.10;;;2.80;;
31676;SDS011;18385;51.572;6.578;2022-10-19T06:19:26;6.78;;;2.83;;
31676;SDS011;18385;51.572;6.578;2022-10-19T06:21:52;7.47;;;3.00;;
31676;SDS011;18385;51.572;6.578;2022-10-19T06:24:17;5.90;;;2.72;;
31676;SDS011;18385;51.572;6.578;2022-10-19T06:26:43;9.93;;;2.92;;
31676;SDS011;18385;51.572;6.578;2022-10-19T06:29:09;5.68;;;2.53;;
31676;SDS011;18385;51.572;6.578;2022-10-19T06:31:34;7.07;;;2.80;;
31676;SDS011;18385;51.572;6.578;2022-10-19T06:34:00;10.90;;;3.53;;
31676;SDS011;18385;51.572;6.578;2022-10-19T06:36:27;13.27;;;3.53;;
31676;SDS011;18385;51.572;6.578;2022-10-19T06:38:54;14.45;;;2.75;;
31676;SDS011;18385;51.572;6.578;2022-10-19T06:41:21;10.90;;;3.38;;
31676;SDS011;18385;51.572;6.578;2022-10-19T06:43:48;9.18;;;2.95;;
31676;SDS011;18385;51.572;6.578;2022-10-19T06:46:17;7.07;;;3.17;;
31676;SDS011;18385;51.572;6.578;2022-10-19T06:48:51;9.48;;;3.80;;
31676;SDS011;18385;51.572;6.578;2022-10-19T06:51:24;9.30;;;3.10;;
31676;SDS011;18385;51.572;6.578;2022-10-19T06:53:52;18.80;;;3.10;;
31676;SDS011;18385;51.572;6.578;2022-10-19T06:56:18;15.13;;;3.30;;
31676;SDS011;18385;51.572;6.578;2022-10-19T06:58:45;8.57;;;2.95;;
31676;SDS011;18385;51.572;6.578;2022-10-19T07:01:11;11.43;;;3.15;;
31676;SDS011;18385;51.572;6.578;2022-10-19T07:03:38;9.75;;;2.90;;
31676;SDS011;18385;51.572;6.578;2022-10-19T07:06:07;7.80;;;3.13;;
31676;SDS011;18385;51.572;6.578;2022-10-19T07:08:35;10.80;;;3.38;;
31676;SDS011;18385;51.572;6.578;2022-10-19T07:11:03;14.13;;;3.50;;
31676;SDS011;18385;51.572;6.578;2022-10-19T07:13:31;16.67;;;3.47;;
31676;SDS011;18385;51.572;6.578;2022-10-19T07:16:02;11.85;;;3.72;;
31676;SDS011;18385;51.572;6.578;2022-10-19T07:18:33;8.93;;;3.50;;
31676;SDS011;18385;51.572;6.578;2022-10-19T07:21:01;9.52;;;4.18;;
31676;SDS011;18385;51.572;6.578;2022-10-19T07:23:29;10.50;;;3.72;;
31676;SDS011;18385;51.572;6.578;2022-10-19T07:25:57;12.63;;;4.40;;
31676;SDS011;18385;51.572;6.578;2022-10-19T07:28:28;9.13;;;4.15;;
31676;SDS011;18385;51.572;6.578;2022-10-19T07:30:54;11.07;;;3.78;;
31676;SDS011;18385;51.572;6.578;2022-10-19T07:33:20;9.32;;;4.45;;
31676;SDS011;18385;51.572;6.578;2022-10-19T07:35:46;10.82;;;4.28;;
31676;SDS011;18385;51.572;6.578;2022-10-19T07:38:14;14.15;;;4.88;;
31676;SDS011;18385;51.572;6.578;2022-10-19T07:40:40;11.63;;;4.88;;
31676;SDS011;18385;51.572;6.578;2022-10-19T07:43:05;12.30;;;4.68;;
31676;SDS011;18385;51.572;6.578;2022-10-19T07:45:33;16.55;;;4.70;;
31676;SDS011;18385;51.572;6.578;2022-10-19T07:47:59;13.63;;;5.07;;
31676;SDS011;18385;51.572;6.578;2022-10-19T07:50:25;16.38;;;6.25;;
31676;SDS011;18385;51.572;6.578;2022-10-19T07:52:51;13.25;;;5.15;;
31676;SDS011;18385;51.572;6.578;2022-10-19T07:55:17;15.25;;;5.50;;
31676;SDS011;18385;51.572;6.578;2022-10-19T07:57:47;19.92;;;6.45;;
31676;SDS011;18385;51.572;6.578;2022-10-19T08:02:40;21.48;;;5.57;;
31676;SDS011;18385;51.572;6.578;2022-10-19T08:05:06;17.02;;;5.53;;
31676;SDS011;18385;51.572;6.578;2022-10-19T08:07:32;13.35;;;5.30;;
31676;SDS011;18385;51.572;6.578;2022-10-19T08:09:58;17.73;;;5.63;;
31676;SDS011;18385;51.572;6.578;2022-10-19T08:12:24;19.10;;;6.50;;
31676;SDS011;18385;51.572;6.578;2022-10-19T08:14:58;15.85;;;6.50;;
31676;SDS011;18385;51.572;6.578;2022-10-19T08:17:41;13.52;;;5.95;;
31676;SDS011;18385;51.572;6.578;2022-10-19T08:20:06;18.23;;;5.80;;
31676;SDS011;18385;51.572;6.578;2022-10-19T08:22:35;10.35;;;6.05;;
31676;SDS011;18385;51.572;6.578;2022-10-19T08:25:07;19.65;;;6.32;;
31676;SDS011;18385;51.572;6.578;2022-10-19T08:28:07;16.45;;;6.13;;
31676;SDS011;18385;51.572;6.578;2022-10-19T08:33:58;17.27;;;5.80;;
31676;SDS011;18385;51.572;6.578;2022-10-19T08:36:39;15.18;;;5.72;;
31676;SDS011;18385;51.572;6.578;2022-10-19T08:39:14;17.20;;;6.35;;
31676;SDS011;18385;51.572;6.578;2022-10-19T08:49:54;17.90;;;5.65;;
31676;SDS011;18385;51.572;6.578;2022-10-19T08:52:23;16.15;;;7.35;;
31676;SDS011;18385;51.572;6.578;2022-10-19T08:54:53;15.00;;;6.05;;
31676;SDS011;18385;51.572;6.578;2022-10-19T09:00:46;12.68;;;6.07;;
31676;SDS011;18385;51.572;6.578;2022-10-19T09:03:45;21.27;;;6.28;;
31676;SDS011;18385;51.572;6.578;2022-10-19T09:06:19;11.13;;;5.90;;
31676;SDS011;18385;51.572;6.578;2022-10-19T09:08:56;17.58;;;6.55;;
31676;SDS011;18385;51.572;6.578;2022-10-19T09:11:30;16.90;;;6.55;;
31676;SDS011;18385;51.572;6.578;2022-10-19T09:16:40;14.50;;;6.60;;
31676;SDS011;18385;51.572;6.578;2022-10-19T09:19:14;17.05;;;6.40;;
31676;SDS011;18385;51.572;6.578;2022-10-19T09:21:59;12.20;;;5.10;;
31676;SDS011;18385;51.572;6.578;2022-10-19T09:26:54;11.80;;;4.90;;
31676;SDS011;18385;51.572;6.578;2022-10-19T09:29:43;11.85;;;4.82;;
31676;SDS011;18385;51.572;6.578;2022-10-19T09:32:13;13.38;;;4.85;;
31676;SDS011;18385;51.572;6.578;2022-10-19T09:34:44;12.15;;;4.30;;
31676;SDS011;18385;51.572;6.578;2022-10-19T09:37:31;15.27;;;4.03;;
31676;SDS011;18385;51.572;6.578;2022-10-19T09:40:04;10.07;;;3.67;;
31676;SDS011;18385;51.572;6.578;2022-10-19T09:42:31;9.88;;;3.70;;
31676;SDS011;18385;51.572;6.578;2022-10-19T09:44:58;7.47;;;3.03;;
31676;SDS011;18385;51.572;6.578;2022-10-19T09:47:32;12.73;;;3.88;;
31676;SDS011;18385;51.572;6.578;2022-10-19T09:50:13;9.48;;;3.25;;
31676;SDS011;18385;51.572;6.578;2022-10-19T09:52:45;11.20;;;3.20;;
31676;SDS011;18385;51.572;6.578;2022-10-19T09:55:35;10.25;;;3.67;;
31676;SDS011;18385;51.572;6.578;2022-10-19T09:58:04;10.00;;;2.95;;
31676;SDS011;18385;51.572;6.578;2022-10-19T10:00:44;8.48;;;3.05;;
31676;SDS011;18385;51.572;6.578;2022-10-19T10:05:53;11.32;;;4.55;;
31676;SDS011;18385;51.572;6.578;2022-10-19T10:08:22;11.00;;;3.10;;
31676;SDS011;18385;51.572;6.578;2022-10-19T10:10:58;8.43;;;2.92;;
31676;SDS011;18385;51.572;6.578;2022-10-19T10:13:36;6.80;;;2.95;;
31676;SDS011;18385;51.572;6.578;2022-10-19T10:16:13;9.57;;;3.22;;
31676;SDS011;18385;51.572;6.578;2022-10-19T10:21:19;5.50;;;1.40;;
31676;SDS011;18385;51.572;6.578;2022-10-19T10:26:38;7.33;;;0.90;;
31676;SDS011;18385;51.572;6.578;2022-10-19T10:31:44;2.70;;;1.00;;
31676;SDS011;18385;51.572;6.578;2022-10-19T10:34:18;4.22;;;0.95;;
31676;SDS011;18385;51.572;6.578;2022-10-19T10:37:15;4.78;;;0.93;;
31676;SDS011;18385;51.572;6.578;2022-10-19T10:40:14;2.83;;;0.73;;
31676;SDS011;18385;51.572;6.578;2022-10-19T10:42:51;2.65;;;0.80;;
31676;SDS011;18385;51.572;6.578;2022-10-19T10:45:29;4.40;;;0.80;;
31676;SDS011;18385;51.572;6.578;2022-10-19T10:48:19;3.00;;;0.80;;
31676;SDS011;18385;51.572;6.578;2022-10-19T10:51:00;3.13;;;0.68;;
31676;SDS011;18385;51.572;6.578;2022-10-19T10:53:40;7.45;;;0.90;;
31676;SDS011;18385;51.572;6.578;2022-10-19T10:56:26;5.82;;;1.10;;
31676;SDS011;18385;51.572;6.578;2022-10-19T11:02:02;7.30;;;1.73;;
31676;SDS011;18385;51.572;6.578;2022-10-19T11:04:40;6.80;;;1.70;;
31676;SDS011;18385;51.572;6.578;2022-10-19T11:07:17;4.97;;;1.67;;
31676;SDS011;18385;51.572;6.578;2022-10-19T11:09:47;8.88;;;2.17;;
31676;SDS011;18385;51.572;6.578;2022-10-19T11:12:18;8.90;;;2.33;;
31676;SDS011;18385;51.572;6.578;2022-10-19T11:18:00;6.55;;;1.75;;
31676;SDS011;18385;51.572;6.578;2022-10-19T11:20:54;5.63;;;1.50;;
31676;SDS011;18385;51.572;6.578;2022-10-19T11:29:07;4.65;;;1.80;;
31676;SDS011;18385;51.572;6.578;2022-10-19T11:31:48;5.32;;;1.20;;
31676;SDS011;18385;51.572;6.578;2022-10-19T11:37:01;6.38;;;1.10;;
31676;SDS011;18385;51.572;6.578;2022-10-19T11:39:46;6.20;;;1.50;;
31676;SDS011;18385;51.572;6.578;2022-10-19T11:43:01;6.13;;;1.38;;
31676;SDS011;18385;51.572;6.578;2022-10-19T11:48:23;6.80;;;1.35;;
31676;SDS011;18385;51.572;6.578;2022-10-19T11:51:37;5.00;;;0.77;;
31676;SDS011;18385;51.572;6.578;2022-10-19T12:00:16;3.42;;;1.30;;
31676;SDS011;18385;51.572;6.578;2022-10-19T12:14:12;1.65;;;0.68;;
31676;SDS011;18385;51.572;6.578;2022-10-19T12:16:47;2.75;;;0.68;;
31676;SDS011;18385;51.572;6.578;2022-10-19T12:19:18;2.90;;;0.98;;
31676;SDS011;18385;51.572;6.578;2022-10-19T12:21:48;2.88;;;0.95;;
31676;SDS011;18385;51.572;6.578;2022-10-19T12:24:22;7.00;;;1.33;;
31676;SDS011;18385;51.572;6.578;2022-10-19T12:26:49;6.70;;;1.00;;
31676;SDS011;18385;51.572;6.578;2022-10-19T12:29:27;2.75;;;0.80;;
31676;SDS011;18385;51.572;6.578;2022-10-19T12:31:56;3.17;;;1.17;;
31676;SDS011;18385;51.572;6.578;2022-10-19T12:34:47;5.07;;;0.82;;
31676;SDS011;18385;51.572;6.578;2022-10-19T12:40:27;5.20;;;1.00;;
31676;SDS011;18385;51.572;6.578;2022-10-19T12:43:07;4.72;;;1.00;;
31676;SDS011;18385;51.572;6.578;2022-10-19T12:48:24;3.78;;;1.17;;
31676;SDS011;18385;51.572;6.578;2022-10-19T12:53:24;6.90;;;1.33;;
31676;SDS011;18385;51.572;6.578;2022-10-19T12:56:24;6.70;;;1.45;;
31676;SDS011;18385;51.572;6.578;2022-10-19T12:58:49;3.33;;;0.80;;
31676;SDS011;18385;51.572;6.578;2022-10-19T13:06:44;3.58;;;1.15;;
31676;SDS011;18385;51.572;6.578;2022-10-19T13:09:32;4.95;;;0.82;;
31676;SDS011;18385;51.572;6.578;2022-10-19T13:14:58;3.73;;;0.50;;
31676;SDS011;18385;51.572;6.578;2022-10-19T13:27:44;3.63;;;0.65;;
31676;SDS011;18385;51.572;6.578;2022-10-19T13:38:24;3.03;;;0.45;;
31676;SDS011;18385;51.572;6.578;2022-10-19T13:43:17;5.63;;;1.33;;
31676;SDS011;18385;51.572;6.578;2022-10-19T13:45:53;2.28;;;0.63;;
31676;SDS011;18385;51.572;6.578;2022-10-19T13:48:55;1.73;;;0.88;;
31676;SDS011;18385;51.572;6.578;2022-10-19T14:03:00;7.50;;;0.70;;
31676;SDS011;18385;51.572;6.578;2022-10-19T14:05:57;4.82;;;0.75;;
31676;SDS011;18385;51.572;6.578;2022-10-19T14:11:41;3.95;;;0.57;;
31676;SDS011;18385;51.572;6.578;2022-10-19T14:16:45;2.05;;;0.73;;
31676;SDS011;18385;51.572;6.578;2022-10-19T14:19:12;4.88;;;0.60;;
31676;SDS011;18385;51.572;6.578;2022-10-19T14:21:38;2.80;;;0.30;;
31676;SDS011;18385;51.572;6.578;2022-10-19T14:24:18;2.05;;;0.50;;
31676;SDS011;18385;51.572;6.578;2022-10-19T14:26:45;4.97;;;0.75;;
31676;SDS011;18385;51.572;6.578;2022-10-19T14:29:11;3.53;;;0.55;;
31676;SDS011;18385;51.572;6.578;2022-10-19T14:31:37;3.10;;;0.30;;
31676;SDS011;18385;51.572;6.578;2022-10-19T14:34:03;4.38;;;0.80;;
31676;SDS011;18385;51.572;6.578;2022-10-19T14:36:34;5.00;;;0.50;;
31676;SDS011;18385;51.572;6.578;2022-10-19T14:39:03;3.08;;;0.65;;
31676;SDS011;18385;51.572;6.578;2022-10-19T14:41:33;2.40;;;0.50;;
31676;SDS011;18385;51.572;6.578;2022-10-19T14:44:03;1.00;;;0.65;;
31676;SDS011;18385;51.572;6.578;2022-10-19T14:46:52;0.77;;;0.30;;
31676;SDS011;18385;51.572;6.578;2022-10-19T14:49:19;5.90;;;0.70;;
31676;SDS011;18385;51.572;6.578;2022-10-19T14:51:48;2.85;;;0.68;;
31676;SDS011;18385;51.572;6.578;2022-10-19T14:54:23;3.65;;;0.68;;
31676;SDS011;18385;51.572;6.578;2022-10-19T14:57:07;1.73;;;0.50;;
31676;SDS011;18385;51.572;6.578;2022-10-19T14:59:36;1.90;;;0.65;;
31676;SDS011;18385;51.572;6.578;2022-10-19T15:02:26;6.00;;;0.70;;
31676;SDS011;18385;51.572;6.578;2022-10-19T15:04:56;3.42;;;0.73;;
31676;SDS011;18385;51.572;6.578;2022-10-19T15:07:40;3.47;;;0.82;;
31676;SDS011;18385;51.572;6.578;2022-10-19T15:10:14;2.42;;;0.90;;
31676;SDS011;18385;51.572;6.578;2022-10-19T15:12:44;3.42;;;0.65;;
31676;SDS011;18385;51.572;6.578;2022-10-19T15:15:31;6.72;;;1.48;;
31676;SDS011;18385;51.572;6.578;2022-10-19T15:20:32;1.30;;;0.70;;
31676;SDS011;18385;51.572;6.578;2022-10-19T15:22:59;1.10;;;0.60;;
31676;SDS011;18385;51.572;6.578;2022-10-19T15:28:20;1.35;;;0.77;;
31676;SDS011;18385;51.572;6.578;2022-10-19T15:30:57;3.38;;;0.63;;
31676;SDS011;18385;51.572;6.578;2022-10-19T15:33:24;3.65;;;0.65;;
31676;SDS011;18385;51.572;6.578;2022-10-19T15:35:50;4.15;;;1.30;;
31676;SDS011;18385;51.572;6.578;2022-10-19T15:38:20;1.88;;;0.80;;
31676;SDS011;18385;51.572;6.578;2022-10-19T15:40:54;5.57;;;0.80;;
31676;SDS011;18385;51.572;6.578;2022-10-19T15:46:01;3.13;;;0.80;;
31676;SDS011;18385;51.572;6.578;2022-10-19T15:53:56;2.25;;;0.80;;
31676;SDS011;18385;51.572;6.578;2022-10-19T15:56:24;4.57;;;1.00;;
31676;SDS011;18385;51.572;6.578;2022-10-19T15:58:52;2.85;;;0.77;;
31676;SDS011;18385;51.572;6.578;2022-10-19T16:01:20;4.45;;;0.85;;
31676;SDS011;18385;51.572;6.578;2022-10-19T16:03:47;1.85;;;0.68;;
31676;SDS011;18385;51.572;6.578;2022-10-19T16:06:14;4.43;;;0.85;;
31676;SDS011;18385;51.572;6.578;2022-10-19T16:08:40;3.95;;;1.00;;
31676;SDS011;18385;51.572;6.578;2022-10-19T16:11:08;2.17;;;0.57;;
31676;SDS011;18385;51.572;6.578;2022-10-19T16:13:37;3.63;;;0.80;;
31676;SDS011;18385;51.572;6.578;2022-10-19T16:16:03;5.25;;;0.80;;
31676;SDS011;18385;51.572;6.578;2022-10-19T16:18:31;2.92;;;0.38;;
31676;SDS011;18385;51.572;6.578;2022-10-19T16:20:56;2.63;;;0.70;;
31676;SDS011;18385;51.572;6.578;2022-10-19T16:23:22;5.10;;;0.50;;
31676;SDS011;18385;51.572;6.578;2022-10-19T16:25:48;2.72;;;0.70;;
31676;SDS011;18385;51.572;6.578;2022-10-19T16:28:14;4.13;;;0.85;;
31676;SDS011;18385;51.572;6.578;2022-10-19T16:30:41;3.47;;;1.00;;
31676;SDS011;18385;51.572;6.578;2022-10-19T16:33:06;5.80;;;0.70;;
31676;SDS011;18385;51.572;6.578;2022-10-19T16:35:32;3.80;;;1.25;;
31676;SDS011;18385;51.572;6.578;2022-10-19T16:37:57;1.67;;;0.70;;
31676;SDS011;18385;51.572;6.578;2022-10-19T16:40:23;4.10;;;0.77;;
31676;SDS011;18385;51.572;6.578;2022-10-19T16:42:49;1.77;;;0.80;;
31676;SDS011;18385;51.572;6.578;2022-10-19T16:45:15;2.83;;;0.82;;
31676;SDS011;18385;51.572;6.578;2022-10-19T16:47:41;1.67;;;0.50;;
31676;SDS011;18385;51.572;6.578;2022-10-19T16:50:07;2.55;;;0.80;;
31676;SDS011;18385;51.572;6.578;2022-10-19T16:52:34;5.13;;;0.80;;
31676;SDS011;18385;51.572;6.578;2022-10-19T16:55:00;5.47;;;0.93;;
31676;SDS011;18385;51.572;6.578;2022-10-19T16:57:26;3.95;;;1.10;;
31676;SDS011;18385;51.572;6.578;2022-10-19T16:59:52;2.80;;;0.75;;
31676;SDS011;18385;51.572;6.578;2022-10-19T17:02:18;8.48;;;0.88;;
31676;SDS011;18385;51.572;6.578;2022-10-19T17:04:45;4.93;;;0.77;;
31676;SDS011;18385;51.572;6.578;2022-10-19T17:07:11;3.28;;;0.50;;
31676;SDS011;18385;51.572;6.578;2022-10-19T17:09:37;2.75;;;0.82;;
31676;SDS011;18385;51.572;6.578;2022-10-19T17:12:04;5.22;;;0.73;;
31676;SDS011;18385;51.572;6.578;2022-10-19T17:14:30;2.58;;;1.15;;
31676;SDS011;18385;51.572;6.578;2022-10-19T17:16:56;2.38;;;0.75;;
31676;SDS011;18385;51.572;6.578;2022-10-19T17:19:22;4.55;;;0.70;;
31676;SDS011;18385;51.572;6.578;2022-10-19T17:21:49;1.67;;;0.60;;
31676;SDS011;18385;51.572;6.578;2022-10-19T17:24:16;3.60;;;0.60;;
31676;SDS011;18385;51.572;6.578;2022-10-19T17:26:42;2.80;;;0.50;;
31676;SDS011;18385;51.572;6.578;2022-10-19T17:29:09;3.38;;;0.50;;
31676;SDS011;18385;51.572;6.578;2022-10-19T17:31:38;4.60;;;0.60;;
31676;SDS011;18385;51.572;6.578;2022-10-19T17:34:06;3.40;;;0.60;;
31676;SDS011;18385;51.572;6.578;2022-10-19T17:36:36;4.05;;;0.50;;
31676;SDS011;18385;51.572;6.578;2022-10-19T17:39:04;1.45;;;0.65;;
31676;SDS011;18385;51.572;6.578;2022-10-19T17:41:32;1.85;;;0.80;;
31676;SDS011;18385;51.572;6.578;2022-10-19T17:43:58;1.50;;;0.88;;
31676;SDS011;18385;51.572;6.578;2022-10-19T17:46:30;6.28;;;0.75;;
31676;SDS011;18385;51.572;6.578;2022-10-19T17:48:58;3.70;;;0.90;;
31676;SDS011;18385;51.572;6.578;2022-10-19T17:51:25;2.30;;;0.40;;
31676;SDS011;18385;51.572;6.578;2022-10-19T17:53:57;13.27;;;0.88;;